Time;durP1;ratioP1;P1;durP2;ratioP2;P2;SDS_P1;SDS_P2;PMS_P1;PMS_P2;Temp;Humidity;BMP_temperature;BMP_pressure;BME280_temperature;BME280_humidity;BME280_pressure;Samples;Min_cycle;Max_cycle;Signal;HPM_P1;HPM_P2
2021/11/01 00:01:49;;;;;;;4.43;1.92;;;;;;;;;;5093640;28;20172;-80
2021/11/01 00:04:15;;;;;;;11.43;2.47;;;;;;;;;;5097051;28;20184;-80
2021/11/01 00:06:41;;;;;;;7.28;2.20;;;;;;;;;;5101442;28;20231;-79
2021/11/01 00:09:07;;;;;;;13.65;2.40;;;;;;;;;;5096826;28;20251;-80
2021/11/01 00:11:33;;;;;;;6.53;2.13;;;;;;;;;;5101367;28;20176;-80
2021/11/01 00:13:59;;;;;;;7.28;2.22;;;;;;;;;;5096439;28;20175;-80
2021/11/01 00:16:26;;;;;;;6.70;2.40;;;;;;;;;;5100809;28;20184;-80
2021/11/01 00:18:51;;;;;;;10.43;2.47;;;;;;;;;;5095433;28;20435;-80
2021/11/01 00:21:18;;;;;;;9.27;2.42;;;;;;;;;;5097051;28;20215;-80
2021/11/01 00:23:44;;;;;;;7.43;2.58;;;;;;;;;;5101022;28;20195;-80
2021/11/01 00:26:11;;;;;;;5.82;2.80;;;;;;;;;;5092491;28;20203;-80
2021/11/01 00:28:38;;;;;;;4.80;1.63;;;;;;;;;;5101377;28;20204;-80
2021/11/01 00:31:04;;;;;;;7.57;1.88;;;;;;;;;;5104551;28;20214;-80
2021/11/01 00:33:30;;;;;;;6.10;1.83;;;;;;;;;;5099985;28;20180;-80
2021/11/01 00:35:56;;;;;;;12.50;1.87;;;;;;;;;;5096793;28;20203;-80
2021/11/01 00:38:24;;;;;;;5.03;1.48;;;;;;;;;;5099989;28;20449;-80
2021/11/01 00:40:50;;;;;;;7.22;1.70;;;;;;;;;;5095007;28;20207;-79
2021/11/01 00:43:16;;;;;;;13.57;1.90;;;;;;;;;;5099196;28;20706;-80
2021/11/01 00:45:42;;;;;;;10.55;3.03;;;;;;;;;;5096331;28;20230;-80
2021/11/01 00:48:08;;;;;;;11.52;2.00;;;;;;;;;;5096280;28;20207;-80
2021/11/01 00:50:36;;;;;;;8.77;2.22;;;;;;;;;;5096317;28;20183;-80
2021/11/01 00:53:02;;;;;;;8.63;1.55;;;;;;;;;;5095411;28;20187;-79
2021/11/01 00:58:12;;;;;;;6.03;2.25;;;;;;;;;;5094497;28;20210;-80
2021/11/01 01:00:38;;;;;;;10.40;2.40;;;;;;;;;;5102058;28;20191;-80
2021/11/01 01:03:04;;;;;;;6.33;1.87;;;;;;;;;;5099463;28;20441;-82
2021/11/01 01:05:30;;;;;;;10.90;3.07;;;;;;;;;;5099363;28;20483;-80
2021/11/01 01:07:56;;;;;;;9.38;2.60;;;;;;;;;;5100296;28;20429;-80
2021/11/01 01:10:22;;;;;;;11.60;2.70;;;;;;;;;;5105187;28;20666;-80
2021/11/01 01:12:49;;;;;;;6.03;2.25;;;;;;;;;;5107532;28;20581;-80
2021/11/01 01:15:21;;;;;;;11.90;2.15;;;;;;;;;;5103993;28;20210;-79
2021/11/01 01:17:48;;;;;;;9.25;2.05;;;;;;;;;;5097613;28;20180;-80
2021/11/01 01:20:16;;;;;;;10.32;2.30;;;;;;;;;;5100515;28;20183;-80
2021/11/01 01:22:43;;;;;;;9.77;2.72;;;;;;;;;;5097911;28;20179;-80
2021/11/01 01:25:28;;;;;;;6.60;2.20;;;;;;;;;;5108076;28;20672;-80
2021/11/01 01:27:55;;;;;;;7.88;2.65;;;;;;;;;;5099144;28;20176;-80
2021/11/01 01:30:22;;;;;;;4.15;1.70;;;;;;;;;;5102874;28;20271;-81
2021/11/01 01:32:48;;;;;;;9.93;2.60;;;;;;;;;;5104258;28;20192;-80
2021/11/01 01:35:15;;;;;;;8.98;2.47;;;;;;;;;;5096184;28;20191;-79
2021/11/01 01:37:42;;;;;;;9.18;2.80;;;;;;;;;;5102770;28;20188;-80
2021/11/01 01:40:08;;;;;;;12.52;2.60;;;;;;;;;;5107454;28;20181;-79
2021/11/01 01:42:35;;;;;;;17.00;2.45;;;;;;;;;;5102794;28;20188;-81
2021/11/01 01:45:03;;;;;;;8.88;1.65;;;;;;;;;;5101893;28;20307;-79
2021/11/01 01:47:29;;;;;;;5.65;1.98;;;;;;;;;;5098356;28;20659;-79
2021/11/01 01:49:55;;;;;;;4.93;2.27;;;;;;;;;;5101892;28;20175;-80
2021/11/01 01:52:21;;;;;;;4.85;1.73;;;;;;;;;;5107642;28;20417;-81
2021/11/01 01:54:48;;;;;;;6.45;1.88;;;;;;;;;;5100936;28;20242;-80
2021/11/01 01:57:14;;;;;;;4.03;1.77;;;;;;;;;;5100223;28;20176;-80
2021/11/01 01:59:42;;;;;;;8.20;1.75;;;;;;;;;;5102158;28;20203;-80
2021/11/01 02:02:08;;;;;;;7.28;2.00;;;;;;;;;;5104833;28;20207;-79
2021/11/01 02:04:35;;;;;;;4.82;1.75;;;;;;;;;;5106908;28;20191;-80
2021/11/01 02:07:29;;;;;;;11.30;2.95;;;;;;;;;;5097812;28;20265;-80
2021/11/01 02:09:55;;;;;;;4.90;2.10;;;;;;;;;;5089329;28;20265;-80
2021/11/01 02:12:24;;;;;;;13.53;1.70;;;;;;;;;;5100643;28;20184;-81
2021/11/01 02:14:53;;;;;;;6.55;2.03;;;;;;;;;;5102230;28;20455;-81
2021/11/01 02:17:25;;;;;;;8.00;2.22;;;;;;;;;;5108305;28;20238;-82
2021/11/01 02:19:52;;;;;;;4.38;1.73;;;;;;;;;;5106575;28;20179;-82
2021/11/01 02:22:23;;;;;;;7.05;2.08;;;;;;;;;;5106910;28;20275;-81
2021/11/01 02:24:57;;;;;;;6.88;1.58;;;;;;;;;;5098717;28;20204;-81
2021/11/01 02:27:24;;;;;;;5.80;1.50;;;;;;;;;;5099961;28;20171;-81
2021/11/01 02:29:51;;;;;;;3.35;1.50;;;;;;;;;;5097844;28;20243;-80
2021/11/01 02:32:17;;;;;;;11.00;2.10;;;;;;;;;;5094737;28;20172;-80
2021/11/01 02:34:44;;;;;;;3.33;1.38;;;;;;;;;;5096263;28;20234;-80
2021/11/01 02:37:10;;;;;;;8.88;1.85;;;;;;;;;;5098113;28;20226;-81
2021/11/01 02:40:05;;;;;;;15.50;1.85;;;;;;;;;;5101485;28;20260;-80
2021/11/01 02:42:31;;;;;;;3.95;1.38;;;;;;;;;;5075794;28;20211;-80
2021/11/01 02:44:59;;;;;;;10.32;1.75;;;;;;;;;;5097386;28;20226;-81
2021/11/01 02:47:26;;;;;;;4.35;1.60;;;;;;;;;;5101147;28;20174;-81
2021/11/01 02:49:52;;;;;;;11.02;2.17;;;;;;;;;;5097462;28;20183;-81
2021/11/01 02:52:19;;;;;;;3.20;1.40;;;;;;;;;;5097949;28;20210;-80
2021/11/01 02:54:45;;;;;;;5.07;1.50;;;;;;;;;;5096003;28;20192;-81
2021/11/01 02:57:11;;;;;;;3.97;1.38;;;;;;;;;;5090051;28;20177;-81
2021/11/01 02:59:38;;;;;;;3.15;1.33;;;;;;;;;;5101763;28;20184;-81
2021/11/01 03:02:04;;;;;;;6.97;2.28;;;;;;;;;;5103799;28;20183;-81
2021/11/01 03:04:30;;;;;;;3.42;1.30;;;;;;;;;;5096044;28;20189;-80
2021/11/01 03:06:57;;;;;;;2.50;1.40;;;;;;;;;;5101060;28;20210;-80
2021/11/01 03:09:23;;;;;;;3.97;1.60;;;;;;;;;;5103262;28;20176;-80
2021/11/01 03:11:49;;;;;;;6.55;2.03;;;;;;;;;;5094941;28;20234;-80
2021/11/01 03:14:17;;;;;;;4.50;1.27;;;;;;;;;;5086391;28;20196;-80
2021/11/01 03:16:49;;;;;;;4.45;1.52;;;;;;;;;;5092750;28;20168;-80
2021/11/01 03:19:20;;;;;;;5.00;1.63;;;;;;;;;;5096491;28;20204;-80
2021/11/01 03:21:46;;;;;;;4.97;1.17;;;;;;;;;;5121690;27;20172;-81
2021/11/01 03:24:13;;;;;;;9.77;1.20;;;;;;;;;;5099926;28;22690;-80
2021/11/01 03:26:40;;;;;;;4.32;1.75;;;;;;;;;;5106932;28;20201;-80
2021/11/01 03:29:06;;;;;;;8.95;2.08;;;;;;;;;;5096589;28;20187;-80
2021/11/01 03:31:33;;;;;;;2.45;1.17;;;;;;;;;;5094928;28;20245;-80
2021/11/01 03:33:59;;;;;;;4.85;1.30;;;;;;;;;;5097478;28;20177;-81
2021/11/01 03:36:26;;;;;;;8.60;1.60;;;;;;;;;;5098925;28;20260;-81
2021/11/01 03:38:54;;;;;;;8.60;1.85;;;;;;;;;;5101760;28;20574;-82
2021/11/01 03:41:23;;;;;;;4.90;1.85;;;;;;;;;;5102523;28;20172;-83
2021/11/01 03:44:14;;;;;;;6.47;2.85;;;;;;;;;;5092618;28;20175;-81
2021/11/01 03:49:06;;;;;;;3.42;1.30;;;;;;;;;;5095319;28;20196;-81
2021/11/01 03:54:05;;;;;;;2.58;1.40;;;;;;;;;;5100617;28;20184;-79
2021/11/01 03:56:31;;;;;;;7.32;1.60;;;;;;;;;;5097177;28;20201;-83
2021/11/01 03:58:57;;;;;;;5.78;1.27;;;;;;;;;;5096892;28;20183;-82
2021/11/01 04:01:23;;;;;;;10.23;1.98;;;;;;;;;;5095672;28;20189;-81
2021/11/01 04:03:49;;;;;;;6.65;1.40;;;;;;;;;;5102396;28;20184;-79
2021/11/01 04:06:18;;;;;;;1.83;0.95;;;;;;;;;;5091897;28;20227;-80
2021/11/01 04:08:45;;;;;;;9.45;1.90;;;;;;;;;;5100125;28;20180;-81
2021/11/01 04:11:16;;;;;;;4.80;1.95;;;;;;;;;;5097087;28;20192;-82
2021/11/01 04:13:43;;;;;;;3.25;1.55;;;;;;;;;;5104999;28;20184;-80
2021/11/01 04:16:16;;;;;;;2.10;1.45;;;;;;;;;;5096257;28;20215;-82
2021/11/01 04:21:17;;;;;;;5.55;1.70;;;;;;;;;;5098223;28;20183;-81
2021/11/01 04:23:43;;;;;;;5.80;1.58;;;;;;;;;;5094642;28;20188;-81
2021/11/01 04:26:11;;;;;;;4.85;1.15;;;;;;;;;;5097563;28;20195;-81
2021/11/01 04:28:37;;;;;;;6.10;1.60;;;;;;;;;;5094655;28;20640;-82
2021/11/01 04:31:12;;;;;;;6.55;2.47;;;;;;;;;;5089835;28;20188;-83
2021/11/01 04:33:41;;;;;;;4.70;1.38;;;;;;;;;;5089571;28;20182;-82
2021/11/01 04:36:07;;;;;;;4.20;1.30;;;;;;;;;;5100623;28;20180;-80
2021/11/01 04:38:42;;;;;;;4.80;1.88;;;;;;;;;;5097251;28;20182;-81
2021/11/01 04:54:34;;;;;;;6.35;1.70;;;;;;;;;;5101814;28;20199;-82
2021/11/01 04:57:01;;;;;;;8.65;2.15;;;;;;;;;;5101821;28;20190;-83
2021/11/01 04:59:28;;;;;;;6.15;1.60;;;;;;;;;;5078147;28;20751;-82
2021/11/01 05:01:55;;;;;;;9.73;3.45;;;;;;;;;;5083016;28;20183;-83
2021/11/01 05:04:27;;;;;;;2.22;1.20;;;;;;;;;;5083139;28;20176;-82
2021/11/01 05:06:57;;;;;;;7.22;1.10;;;;;;;;;;5080587;28;20204;-83
2021/11/01 05:09:29;;;;;;;2.97;1.10;;;;;;;;;;5080314;28;20183;-87
2021/11/01 05:14:55;;;;;;;4.57;1.73;;;;;;;;;;5095751;28;20183;-85
2021/11/01 05:27:48;;;;;;;3.30;1.00;;;;;;;;;;5037135;28;20182;-84
2021/11/01 05:30:22;;;;;;;4.22;1.48;;;;;;;;;;5036401;28;20214;-84
2021/11/01 05:32:59;;;;;;;4.50;1.38;;;;;;;;;;5022866;28;20189;-85
2021/11/01 05:35:25;;;;;;;10.10;1.42;;;;;;;;;;5022552;28;20201;-81
2021/11/01 05:37:51;;;;;;;4.80;1.10;;;;;;;;;;5040035;28;20185;-84
2021/11/01 05:40:17;;;;;;;5.03;2.22;;;;;;;;;;5039735;28;20689;-83
2021/11/01 05:42:44;;;;;;;1.90;1.00;;;;;;;;;;5037854;28;20194;-84
2021/11/01 05:45:10;;;;;;;4.70;1.52;;;;;;;;;;5039086;28;20337;-81
2021/11/01 05:47:36;;;;;;;6.22;1.33;;;;;;;;;;5039479;28;20189;-82
2021/11/01 05:50:04;;;;;;;4.43;1.17;;;;;;;;;;5016237;28;20173;-81
2021/11/01 05:52:31;;;;;;;4.43;1.85;;;;;;;;;;5038162;28;20236;-82
2021/11/01 05:55:06;;;;;;;7.03;1.90;;;;;;;;;;5021788;28;20186;-82
2021/11/01 05:58:06;;;;;;;2.55;1.05;;;;;;;;;;5023127;28;20219;-81
2021/11/01 06:00:38;;;;;;;2.85;1.10;;;;;;;;;;5040876;28;20651;-83
2021/11/01 06:15:50;;;;;;;2.80;1.02;;;;;;;;;;5098583;28;20502;-81
2021/11/01 06:18:16;;;;;;;2.78;0.90;;;;;;;;;;5103459;28;20183;-82
2021/11/01 06:20:42;;;;;;;4.72;1.13;;;;;;;;;;5103535;28;20188;-82
2021/11/01 06:23:08;;;;;;;2.75;1.45;;;;;;;;;;5099933;28;20184;-83
2021/11/01 06:25:36;;;;;;;2.63;0.93;;;;;;;;;;5093252;28;20207;-83
2021/11/01 06:28:02;;;;;;;4.10;1.35;;;;;;;;;;5102134;28;20225;-83
2021/11/01 06:30:39;;;;;;;2.22;1.00;;;;;;;;;;5103057;28;20187;-83
2021/11/01 06:41:43;;;;;;;2.78;1.02;;;;;;;;;;5102000;28;20198;-83
2021/11/01 07:14:12;;;;;;;6.18;1.30;;;;;;;;;;5060451;28;20238;-83
2021/11/01 08:35:26;;;;;;;3.25;1.10;;;;;;;;;;5097818;28;20202;-80
2021/11/01 08:43:15;;;;;;;3.45;1.13;;;;;;;;;;5098984;28;20180;-80
2021/11/01 09:04:12;;;;;;;6.80;2.35;;;;;;;;;;5098286;28;20241;-82
2021/11/01 09:20:14;;;;;;;5.68;1.25;;;;;;;;;;5039259;28;20200;-81
2021/11/01 09:25:24;;;;;;;2.63;1.25;;;;;;;;;;5038474;28;20585;-82
2021/11/01 09:28:06;;;;;;;3.90;1.30;;;;;;;;;;5038028;28;20181;-81
2021/11/01 09:35:47;;;;;;;4.78;1.10;;;;;;;;;;5035546;28;20205;-80
2021/11/01 09:36:43;;;;;;;2.15;1.02;;;;;;;;;;5039282;28;20224;-80
2021/11/01 09:39:29;;;;;;;6.82;1.30;;;;;;;;;;5039790;28;20194;-81
2021/11/01 09:41:51;;;;;;;6.63;1.42;;;;;;;;;;5043648;28;20187;-80
2021/11/01 09:44:24;;;;;;;4.03;1.15;;;;;;;;;;5043854;28;20201;-80
2021/11/01 09:46:50;;;;;;;2.63;1.27;;;;;;;;;;5052592;28;20209;-80
2021/11/01 09:49:16;;;;;;;6.97;1.20;;;;;;;;;;5042262;28;20259;-81
2021/11/01 09:51:50;;;;;;;3.90;1.13;;;;;;;;;;5042366;28;20169;-79
2021/11/01 09:54:21;;;;;;;6.82;1.67;;;;;;;;;;5050041;28;20178;-80
2021/11/01 09:56:59;;;;;;;2.10;1.05;;;;;;;;;;5049966;28;20253;-79
2021/11/01 09:59:26;;;;;;;5.95;1.77;;;;;;;;;;5064744;28;20189;-81
2021/11/01 10:01:52;;;;;;;4.53;1.20;;;;;;;;;;5042862;28;20186;-79
2021/11/01 10:04:23;;;;;;;4.53;1.55;;;;;;;;;;5040086;28;20285;-81
2021/11/01 10:09:40;;;;;;;3.90;1.38;;;;;;;;;;5031911;28;20216;-79
2021/11/01 10:12:10;;;;;;;5.88;1.50;;;;;;;;;;5040968;28;20204;-79
2021/11/01 10:14:44;;;;;;;6.15;1.30;;;;;;;;;;5044220;28;20167;-82
2021/11/01 10:19:58;;;;;;;1.40;0.85;;;;;;;;;;5040776;28;20280;-78
2021/11/01 10:22:32;;;;;;;4.95;1.38;;;;;;;;;;5042346;28;20194;-78
2021/11/01 10:24:58;;;;;;;6.40;1.77;;;;;;;;;;5043149;28;20189;-81
2021/11/01 10:27:28;;;;;;;5.70;1.50;;;;;;;;;;5050026;28;20186;-79
2021/11/01 10:29:57;;;;;;;2.55;1.17;;;;;;;;;;5044619;28;20182;-79
2021/11/01 10:32:46;;;;;;;4.07;2.03;;;;;;;;;;5047393;28;20242;-80
2021/11/01 10:35:22;;;;;;;7.38;1.38;;;;;;;;;;5056661;28;20177;-80
2021/11/01 10:38:01;;;;;;;5.40;1.00;;;;;;;;;;5042258;28;20207;-82
2021/11/01 10:40:29;;;;;;;1.73;1.05;;;;;;;;;;5042746;28;20596;-79
2021/11/01 10:43:03;;;;;;;4.07;1.13;;;;;;;;;;5042277;28;20182;-80
2021/11/01 10:46:14;;;;;;;2.95;1.40;;;;;;;;;;5037665;28;20715;-80
2021/11/01 11:13:18;;;;;;;2.15;0.90;;;;;;;;;;4980754;28;20195;-82
2021/11/01 11:15:49;;;;;;;1.60;1.05;;;;;;;;;;4965981;28;20294;-79
2021/11/01 11:21:16;;;;;;;3.13;0.80;;;;;;;;;;4980630;28;20200;-81
2021/11/01 11:32:07;;;;;;;2.85;1.00;;;;;;;;;;4955904;28;20224;-79
2021/11/01 11:37:34;;;;;;;2.35;0.98;;;;;;;;;;4961631;28;20204;-81
2021/11/01 11:40:24;;;;;;;1.77;1.02;;;;;;;;;;4958301;28;20195;-80
2021/11/01 11:48:38;;;;;;;3.45;1.30;;;;;;;;;;4987697;28;20622;-81
2021/11/01 11:51:06;;;;;;;2.88;0.80;;;;;;;;;;4977498;28;20179;-81
2021/11/01 11:53:33;;;;;;;3.13;1.02;;;;;;;;;;4987223;28;20644;-79
2021/11/01 11:56:11;;;;;;;1.45;0.85;;;;;;;;;;4989742;28;20191;-81
2021/11/01 11:58:38;;;;;;;2.58;1.10;;;;;;;;;;4980724;28;20219;-80
2021/11/01 12:01:23;;;;;;;3.65;0.90;;;;;;;;;;5036521;28;20201;-80
2021/11/01 12:03:49;;;;;;;4.63;1.38;;;;;;;;;;5033456;28;20313;-81
2021/11/01 12:06:19;;;;;;;2.03;1.00;;;;;;;;;;5026971;28;20237;-79
2021/11/01 12:08:53;;;;;;;3.83;1.20;;;;;;;;;;5039941;28;20442;-79
2021/11/01 12:11:33;;;;;;;5.13;1.60;;;;;;;;;;5027932;28;20180;-78
2021/11/01 12:19:46;;;;;;;3.95;1.30;;;;;;;;;;4986502;28;20191;-78
2021/11/01 12:22:22;;;;;;;4.80;1.30;;;;;;;;;;5001015;28;20210;-78
2021/11/01 12:24:50;;;;;;;4.07;1.20;;;;;;;;;;5001119;28;20215;-82
2021/11/01 12:27:17;;;;;;;3.15;1.17;;;;;;;;;;4997812;28;20187;-79
2021/11/01 12:29:43;;;;;;;5.40;1.10;;;;;;;;;;5000678;28;20180;-79
2021/11/01 12:32:12;;;;;;;4.80;1.00;;;;;;;;;;5002045;28;20198;-79
2021/11/01 12:34:44;;;;;;;9.15;1.98;;;;;;;;;;4990448;28;20195;-79
2021/11/01 12:37:14;;;;;;;2.28;1.20;;;;;;;;;;4981740;28;20195;-80
2021/11/01 12:58:37;;;;;;;2.08;1.17;;;;;;;;;;5030739;28;20232;-84
2021/11/01 13:01:07;;;;;;;3.88;1.45;;;;;;;;;;5031139;28;20202;-81
2021/11/01 13:03:33;;;;;;;4.32;1.20;;;;;;;;;;5033099;28;20186;-81
2021/11/01 13:06:06;;;;;;;3.75;1.00;;;;;;;;;;5027760;28;20613;-76
2021/11/01 13:08:36;;;;;;;2.45;1.48;;;;;;;;;;5043312;28;20217;-81
2021/11/01 13:11:15;;;;;;;8.93;1.83;;;;;;;;;;5031234;28;20199;-81
2021/11/01 13:19:34;;;;;;;3.30;1.10;;;;;;;;;;5022651;28;20182;-80
2021/11/01 13:22:10;;;;;;;2.55;0.90;;;;;;;;;;5002794;28;20183;-81
2021/11/01 13:24:44;;;;;;;2.05;1.05;;;;;;;;;;5014532;28;20201;-82
2021/11/01 13:35:45;;;;;;;4.82;1.20;;;;;;;;;;5023572;28;20812;-81
2021/11/01 13:38:12;;;;;;;2.25;0.90;;;;;;;;;;5008386;28;20654;-82
2021/11/01 13:40:42;;;;;;;2.58;1.20;;;;;;;;;;5007978;28;20267;-84
2021/11/01 13:43:08;;;;;;;5.22;1.38;;;;;;;;;;5002013;28;20195;-82
2021/11/01 13:45:34;;;;;;;2.70;1.50;;;;;;;;;;4991653;28;20263;-82
2021/11/01 13:48:01;;;;;;;6.03;1.17;;;;;;;;;;5007587;28;20195;-81
2021/11/01 13:50:29;;;;;;;2.35;0.90;;;;;;;;;;5026164;28;20480;-81
2021/11/01 13:53:03;;;;;;;2.35;0.85;;;;;;;;;;5031374;28;20208;-80
2021/11/01 14:01:29;;;;;;;5.15;1.17;;;;;;;;;;5039210;28;20218;-81
2021/11/01 14:14:53;;;;;;;2.80;1.17;;;;;;;;;;5002476;28;20655;-79
2021/11/01 14:18:02;;;;;;;5.70;2.03;;;;;;;;;;5008213;28;20209;-80
2021/11/01 14:20:34;;;;;;;2.28;1.45;;;;;;;;;;5015876;28;20182;-81
2021/11/01 15:28:22;;;;;;;2.45;2.25;;;;;;;;;;5002006;28;20207;-84
2021/11/01 16:19:25;;;;;;;2.10;1.63;;;;;;;;;;4996561;28;20206;-85
2021/11/01 16:21:51;;;;;;;2.38;1.75;;;;;;;;;;4977965;28;20198;-85
2021/11/01 16:24:17;;;;;;;3.73;2.53;;;;;;;;;;4983172;28;20195;-85
2021/11/01 16:26:44;;;;;;;2.15;1.95;;;;;;;;;;5000736;28;20541;-86
2021/11/01 16:29:21;;;;;;;1.80;1.70;;;;;;;;;;4991183;28;20175;-84
2021/11/01 16:31:50;;;;;;;3.05;2.47;;;;;;;;;;4999196;28;20241;-87
2021/11/01 16:34:29;;;;;;;3.45;2.20;;;;;;;;;;4982880;28;20180;-86
2021/11/01 16:39:25;;;;;;;3.75;3.17;;;;;;;;;;4999161;28;20187;-86
2021/11/01 16:41:53;;;;;;;4.72;2.90;;;;;;;;;;4984137;28;20242;-84
2021/11/01 16:46:53;;;;;;;6.47;4.55;;;;;;;;;;5027325;28;20222;-85
2021/11/01 16:49:20;;;;;;;5.05;3.63;;;;;;;;;;5036364;28;20552;-86
2021/11/01 16:51:47;;;;;;;4.85;3.38;;;;;;;;;;5038625;28;20435;-86
2021/11/01 16:54:16;;;;;;;3.90;3.50;;;;;;;;;;5026723;28;20197;-86
2021/11/01 16:59:26;;;;;;;4.95;2.55;;;;;;;;;;5028816;28;20175;-83
2021/11/01 17:01:56;;;;;;;8.35;3.20;;;;;;;;;;5035091;28;20189;-82
2021/11/01 17:04:23;;;;;;;4.47;3.85;;;;;;;;;;5029116;28;20780;-85
2021/11/01 17:07:18;;;;;;;10.07;3.15;;;;;;;;;;5029369;28;20210;-86
2021/11/01 17:10:12;;;;;;;7.30;3.72;;;;;;;;;;5029129;28;20182;-85
2021/11/01 17:26:24;;;;;;;7.25;4.60;;;;;;;;;;5030328;28;20629;-86
2021/11/01 18:51:23;;;;;;;12.93;7.25;;;;;;;;;;4998962;28;20793;-84
2021/11/01 18:54:17;;;;;;;11.25;7.20;;;;;;;;;;5013111;28;20186;-83
2021/11/01 18:56:44;;;;;;;9.95;7.80;;;;;;;;;;4981565;28;20234;-82
2021/11/01 18:59:11;;;;;;;8.63;7.20;;;;;;;;;;4985919;28;20334;-83
2021/11/01 19:01:39;;;;;;;8.63;7.15;;;;;;;;;;5008849;28;20277;-84
2021/11/01 19:04:09;;;;;;;9.32;7.60;;;;;;;;;;5029881;28;20251;-83
2021/11/01 19:09:20;;;;;;;8.18;7.35;;;;;;;;;;5030800;28;20210;-83
2021/11/01 20:05:13;;;;;;;14.20;11.00;;;;;;;;;;5038260;28;20216;-82
2021/11/01 20:10:15;;;;;;;13.35;9.95;;;;;;;;;;5039744;28;20240;-82
2021/11/01 20:12:57;;;;;;;10.90;9.32;;;;;;;;;;5046118;28;20247;-82
2021/11/01 21:27:05;;;;;;;4.93;4.03;;;;;;;;;;5040181;28;20614;-84
2021/11/01 21:29:35;;;;;;;4.68;3.47;;;;;;;;;;5058909;28;20165;-83
2021/11/01 21:32:02;;;;;;;7.63;4.07;;;;;;;;;;5053238;28;20612;-83
2021/11/01 21:34:32;;;;;;;4.45;4.07;;;;;;;;;;5040396;28;20197;-82
2021/11/01 21:36:58;;;;;;;6.32;4.00;;;;;;;;;;5044390;28;20181;-83
2021/11/01 21:39:24;;;;;;;5.85;3.70;;;;;;;;;;5052355;28;20191;-83
2021/11/01 21:41:50;;;;;;;7.07;3.70;;;;;;;;;;5087923;28;20186;-82
2021/11/01 21:44:17;;;;;;;7.20;4.03;;;;;;;;;;5081307;28;20578;-84
2021/11/01 21:46:43;;;;;;;6.35;4.30;;;;;;;;;;5034861;28;20472;-83
2021/11/01 21:49:09;;;;;;;3.80;3.42;;;;;;;;;;5043740;28;20223;-83
2021/11/01 21:51:38;;;;;;;5.85;4.72;;;;;;;;;;5041805;28;20186;-83
2021/11/01 21:56:44;;;;;;;9.38;5.38;;;;;;;;;;5044872;28;20626;-82
2021/11/01 22:09:57;;;;;;;5.47;4.97;;;;;;;;;;5043462;28;20181;-84
2021/11/01 22:18:06;;;;;;;6.93;5.40;;;;;;;;;;5050219;28;20263;-84
2021/11/01 22:20:34;;;;;;;9.05;5.43;;;;;;;;;;5074144;28;20181;-84
2021/11/01 22:25:48;;;;;;;7.25;5.15;;;;;;;;;;5031786;28;20209;-83
2021/11/01 22:33:57;;;;;;;6.90;3.83;;;;;;;;;;5037378;28;20197;-85
2021/11/01 22:39:18;;;;;;;7.40;3.92;;;;;;;;;;5039329;28;20279;-84
2021/11/01 22:41:57;;;;;;;3.90;2.90;;;;;;;;;;5049922;28;20214;-84
2021/11/01 22:58:16;;;;;;;4.05;2.67;;;;;;;;;;5001442;28;20194;-85
2021/11/01 23:00:48;;;;;;;4.32;2.67;;;;;;;;;;4999940;28;20725;-84
2021/11/01 23:03:19;;;;;;;3.92;2.97;;;;;;;;;;4999226;28;20191;-82
2021/11/01 23:33:09;;;;;;;3.83;2.50;;;;;;;;;;5002296;28;20238;-84
2021/11/01 23:35:35;;;;;;;5.57;2.30;;;;;;;;;;5012232;28;20183;-85
2021/11/01 23:38:02;;;;;;;4.47;1.85;;;;;;;;;;5003066;28;20540;-84
2021/11/01 23:40:28;;;;;;;3.65;1.40;;;;;;;;;;5004308;28;20219;-85
2021/11/01 23:42:54;;;;;;;8.10;2.00;;;;;;;;;;4987417;28;20188;-84
2021/11/01 23:45:20;;;;;;;3.25;1.85;;;;;;;;;;4998284;28;20223;-84
2021/11/01 23:47:46;;;;;;;4.63;2.10;;;;;;;;;;5011457;28;20666;-85
2021/11/01 23:50:12;;;;;;;2.03;1.23;;;;;;;;;;4997730;28;20176;-85
2021/11/01 23:52:52;;;;;;;3.40;1.40;;;;;;;;;;5001546;28;20243;-85
2021/11/01 23:55:18;;;;;;;3.72;1.52;;;;;;;;;;4997052;28;20190;-85
2021/11/01 23:57:44;;;;;;;2.63;1.48;;;;;;;;;;5002578;28;20191;-85
